Time;durP1;ratioP1;P1;durP2;ratioP2;P2;SDS_P1;SDS_P2;PMS_P1;PMS_P2;Temp;Humidity;BMP_temperature;BMP_pressure;BME280_temperature;BME280_humidity;BME280_pressure;Samples;Min_cycle;Max_cycle;Signal;HPM_P1;HPM_P2
2022/02/06 00:02:15;;;;;;;;;6.00;4.25;;;;;-147.17;96.11;50623.56;4995965;28;51160;-62
2022/02/06 00:04:43;;;;;;;;;5.67;4.33;;;;;-147.17;96.42;50625.53;4993171;28;51134;-63
2022/02/06 00:07:08;;;;;;;;;5.00;5.00;;;;;-147.17;96.44;50607.81;4997715;28;51548;-65
2022/02/06 00:09:34;;;;;;;;;4.00;4.00;;;;;-147.17;96.49;50597.97;4993927;28;51617;-66
2022/02/06 00:11:59;;;;;;;;;5.00;4.00;;;;;-147.17;96.62;50611.75;4975668;28;51263;-64
2022/02/06 00:14:24;;;;;;;;;2.00;2.00;;;;;-147.17;97.28;50643.25;5000473;28;50942;-65
2022/02/06 00:16:50;;;;;;;;;3.75;3.50;;;;;-147.17;97.40;50643.25;4994987;28;51119;-64
2022/02/06 00:19:15;;;;;;;;;4.00;2.25;;;;;-147.17;97.68;50576.31;4994537;28;51221;-64
2022/02/06 00:21:41;;;;;;;;;3.00;3.00;;;;;-147.17;97.83;50609.78;4980377;28;51194;-65
2022/02/06 00:24:09;;;;;;;;;6.00;4.00;;;;;-147.17;97.68;50627.50;4961238;28;51099;-63
2022/02/06 00:26:44;;;;;;;;;4.25;4.00;;;;;-147.17;98.34;50599.94;4995206;28;51173;-64
2022/02/06 00:29:20;;;;;;;;;2.25;2.25;;;;;-147.17;97.84;50631.44;4992935;28;52136;-64
2022/02/06 00:31:52;;;;;;;;;3.50;3.00;;;;;-147.17;97.99;50597.97;4992182;28;51092;-64
2022/02/06 00:39:27;;;;;;;;;2.00;2.00;;;;;-147.17;98.03;50617.66;4991315;28;51137;-64
2022/02/06 00:41:52;;;;;;;;;4.25;3.00;;;;;-147.17;98.07;50609.78;4992854;28;51082;-63
2022/02/06 00:44:17;;;;;;;;;7.00;4.00;;;;;-147.17;97.97;50599.94;4993076;28;51496;-64
2022/02/06 00:46:44;;;;;;;;;4.25;4.00;;;;;-147.17;97.98;50611.75;4999148;28;50974;-64
2022/02/06 00:49:24;;;;;;;;;4.25;3.00;;;;;-147.17;98.29;50611.75;4993701;28;52330;-64
2022/02/06 00:52:06;;;;;;;;;5.50;4.00;;;;;-147.17;98.25;50574.34;4994393;28;51165;-64
2022/02/06 00:54:31;;;;;;;;;3.25;3.25;;;;;-147.17;98.91;50584.19;4993543;28;51315;-64
2022/02/06 00:56:57;;;;;;;;;2.00;2.00;;;;;-147.17;98.92;50611.75;4993547;28;51151;-64
2022/02/06 00:59:22;;;;;;;;;3.00;3.00;;;;;-147.17;98.92;50609.78;4989606;28;51732;-65
2022/02/06 01:01:48;;;;;;;;;2.00;2.00;;;;;-147.17;99.12;50588.13;4991675;28;50962;-64
2022/02/06 01:04:17;;;;;;;;;3.00;3.00;;;;;-147.17;98.94;50594.03;5001074;28;51271;-63
2022/02/06 01:06:43;;;;;;;;;4.00;4.00;;;;;-147.17;99.37;50588.13;4989829;28;51744;-64
2022/02/06 01:09:09;;;;;;;;;3.00;3.00;;;;;-147.17;99.38;50605.84;4994065;28;51659;-64
2022/02/06 01:11:37;;;;;;;;;5.75;4.00;;;;;-147.17;99.37;50586.16;4993420;28;51113;-64
2022/02/06 01:14:14;;;;;;;;;3.00;3.00;;;;;-147.17;99.17;50601.91;4975253;28;51108;-63
2022/02/06 01:16:46;;;;;;;;;4.00;2.33;;;;;-147.17;99.14;50580.25;4993708;28;51085;-64
2022/02/06 01:19:18;;;;;;;;;3.00;3.00;;;;;-147.17;99.14;50603.88;4974842;28;53116;-66
2022/02/06 01:22:05;;;;;;;;;2.67;2.67;;;;;-147.17;99.43;50596.00;4991792;28;51281;-64
2022/02/06 01:25:23;;;;;;;;;3.00;3.00;;;;;-147.17;99.70;50594.03;4990571;28;51086;-64
2022/02/06 01:27:23;;;;;;;;;0.67;0.67;;;;;-147.17;99.64;50601.91;4988655;28;51183;-65
2022/02/06 01:32:18;;;;;;;;;2.67;2.00;;;;;-147.17;99.76;50592.06;4992622;28;51373;-64
2022/02/06 01:35:10;;;;;;;;;3.50;3.50;;;;;-147.17;99.25;50576.31;4993750;28;51291;-64
2022/02/06 01:37:42;;;;;;;;;4.67;3.00;;;;;-147.17;99.46;50572.38;4991848;28;51450;-64
2022/02/06 01:40:15;;;;;;;;;2.00;2.00;;;;;-147.17;99.62;50582.22;4993547;28;50989;-64
2022/02/06 01:42:59;;;;;;;;;2.00;2.00;;;;;-147.17;99.79;50597.97;4976254;28;51015;-63
2022/02/06 01:45:33;;;;;;;;;5.67;4.00;;;;;-147.17;99.71;50615.69;4993820;28;50936;-64
2022/02/06 02:02:07;;;;;;;;;2.00;2.00;;;;;-147.17;99.65;50584.19;4989770;28;51058;-64
2022/02/06 02:04:47;;;;;;;;;3.00;2.00;;;;;-147.17;99.40;50596.00;4989363;28;51038;-64
2022/02/06 02:10:54;;;;;;;;;3.00;2.00;;;;;-147.17;99.32;50623.56;4959046;28;51211;-64
2022/02/06 02:47:20;;;;;;;;;3.00;2.00;;;;;-147.17;99.90;50617.66;4994868;28;51200;-64
2022/02/06 02:49:54;;;;;;;;;3.00;2.00;;;;;-147.17;100.00;50574.34;4990067;28;51249;-64
2022/02/06 02:53:15;;;;;;;;;1.67;1.00;;;;;-147.17;100.00;50562.53;4989354;28;51285;-64
2022/02/06 02:58:08;;;;;;;;;3.50;3.50;;;;;-147.17;100.00;50607.81;4988550;28;51208;-64
2022/02/06 03:03:13;;;;;;;;;1.00;1.00;;;;;-147.17;100.00;50596.00;4991298;28;51348;-64
2022/02/06 03:05:40;;;;;;;;;2.50;2.00;;;;;-147.17;100.00;50546.78;4983094;28;52284;-64
2022/02/06 03:08:07;;;;;;;;;2.25;2.25;;;;;-147.17;100.00;50580.25;4960624;28;51229;-64
2022/02/06 03:10:33;;;;;;;;;3.33;3.00;;;;;-147.17;100.00;50603.88;4989470;28;51198;-64
2022/02/06 03:13:01;;;;;;;;;2.00;2.00;;;;;-147.17;100.00;50554.66;4991025;28;50907;-67
2022/02/06 03:18:07;;;;;;;;;4.50;3.00;;;;;-147.17;100.00;50554.66;4992036;28;51220;-64
2022/02/06 03:20:34;;;;;;;;;1.50;1.50;;;;;-147.17;100.00;50572.38;4989026;28;51246;-64
2022/02/06 03:23:03;;;;;;;;;1.25;1.00;;;;;-147.17;100.00;50572.38;4990980;28;51303;-64
2022/02/06 03:25:29;;;;;;;;;2.33;2.00;;;;;-147.17;100.00;50572.38;4990300;28;52339;-64
2022/02/06 03:27:55;;;;;;;;;2.00;2.00;;;;;-147.17;100.00;50554.66;4991392;28;51076;-64
2022/02/06 03:30:22;;;;;;;;;2.00;2.00;;;;;-147.17;100.00;50572.38;4993905;28;51122;-63
2022/02/06 03:32:50;;;;;;;;;2.00;2.00;;;;;-147.17;100.00;50556.63;4995383;28;51198;-64
2022/02/06 03:35:16;;;;;;;;;3.25;2.50;;;;;-147.17;100.00;50572.38;4978086;28;53214;-65
2022/02/06 03:37:43;;;;;;;;;2.33;1.67;;;;;-147.17;100.00;50552.69;4994856;28;51221;-64
2022/02/06 03:40:21;;;;;;;;;3.00;1.00;;;;;-147.17;100.00;50538.91;4960276;28;51287;-65
2022/02/06 03:43:02;;;;;;;;;4.50;3.50;;;;;-147.17;100.00;50521.19;4995712;28;51461;-65
2022/02/06 03:45:36;;;;;;;;;3.75;2.25;;;;;-147.17;100.00;50550.72;4993927;28;51184;-64
2022/02/06 03:48:12;;;;;;;;;2.00;2.00;;;;;-147.17;100.00;50546.78;4992817;28;51027;-65
2022/02/06 03:50:38;;;;;;;;;3.00;2.00;;;;;-147.17;100.00;50529.06;4992110;28;51105;-65
2022/02/06 03:53:04;;;;;;;;;3.00;1.75;;;;;-147.17;100.00;50525.13;4995792;28;51113;-64
2022/02/06 03:55:31;;;;;;;;;2.75;2.75;;;;;-147.17;100.00;50509.38;4994370;28;51753;-64
2022/02/06 03:57:56;;;;;;;;;2.25;2.00;;;;;-147.17;100.00;50527.09;4994461;28;50988;-64
2022/02/06 04:00:24;;;;;;;;;2.00;2.00;;;;;-147.17;100.00;50521.19;4994190;28;51056;-64
2022/02/06 04:02:49;;;;;;;;;1.75;1.75;;;;;-147.17;100.00;50507.41;4994653;28;51044;-64
2022/02/06 04:05:15;;;;;;;;;2.00;2.00;;;;;-147.17;100.00;50527.09;4994337;28;51952;-64
2022/02/06 04:07:42;;;;;;;;;2.75;1.25;;;;;-147.17;100.00;50515.28;4995468;28;50937;-65
2022/02/06 04:10:10;;;;;;;;;1.00;1.00;;;;;-147.17;100.00;50531.03;4993057;28;51464;-64
2022/02/06 04:12:39;;;;;;;;;2.00;2.00;;;;;-147.17;100.00;50481.81;4965759;28;51289;-64
2022/02/06 04:15:10;;;;;;;;;4.50;2.75;;;;;-147.17;100.00;50523.16;4992369;28;51310;-65
2022/02/06 04:17:43;;;;;;;;;2.00;2.00;;;;;-147.17;100.00;50523.16;4995391;28;51166;-64
2022/02/06 04:20:08;;;;;;;;;2.25;2.25;;;;;-147.17;100.00;50533.00;4993406;28;51260;-64
2022/02/06 04:22:34;;;;;;;;;3.00;3.00;;;;;-147.17;100.00;50521.19;4977984;28;51393;-64
2022/02/06 04:24:59;;;;;;;;;4.00;2.00;;;;;-147.17;100.00;50503.47;4994496;28;51153;-64
2022/02/06 04:27:25;;;;;;;;;5.00;3.00;;;;;-147.17;100.00;50536.94;4994389;28;51086;-64
2022/02/06 04:29:52;;;;;;;;;2.00;2.00;;;;;-147.17;100.00;50540.88;4995712;28;51106;-64
2022/02/06 04:32:19;;;;;;;;;4.00;2.50;;;;;-147.17;100.00;50533.00;4994764;28;51630;-64
2022/02/06 04:34:44;;;;;;;;;4.00;2.25;;;;;-147.17;100.00;50523.16;4994509;28;52776;-64
2022/02/06 05:16:43;;;;;;;;;2.00;2.00;;;;;-147.17;100.00;50485.75;4992322;28;51051;-64
2022/02/06 05:34:07;;;;;;;;;2.00;1.00;;;;;-147.17;100.00;50481.81;4994408;28;51082;-64
2022/02/06 05:36:33;;;;;;;;;4.75;3.75;;;;;-147.17;100.00;50513.31;4993134;28;51685;-64
2022/02/06 05:38:58;;;;;;;;;1.50;1.00;;;;;-147.17;100.00;50477.88;4992519;28;51107;-64
2022/02/06 05:41:24;;;;;;;;;2.00;2.00;;;;;-147.17;100.00;50493.63;4993931;28;50937;-64
2022/02/06 05:43:50;;;;;;;;;3.75;3.00;;;;;-147.17;100.00;50497.56;4993708;28;51142;-64
2022/02/06 05:46:16;;;;;;;;;2.50;2.00;;;;;-147.17;100.00;50460.16;4998138;28;52672;-64
2022/02/06 05:48:41;;;;;;;;;2.00;2.00;;;;;-147.17;100.00;50481.81;4989909;28;51152;-64
2022/02/06 05:51:07;;;;;;;;;2.00;2.00;;;;;-147.17;100.00;50477.88;4990456;28;51412;-64
2022/02/06 05:53:33;;;;;;;;;3.00;3.00;;;;;-147.17;100.00;50481.81;4994359;28;50988;-66
2022/02/06 05:55:59;;;;;;;;;2.00;2.00;;;;;-147.17;100.00;50483.78;4992374;28;51118;-64
2022/02/06 05:58:24;;;;;;;;;1.75;1.25;;;;;-147.17;100.00;50483.78;4976198;28;51057;-64
2022/02/06 06:00:50;;;;;;;;;2.25;2.00;;;;;-147.17;100.00;50456.22;4993376;28;50999;-64
2022/02/06 06:03:15;;;;;;;;;2.00;2.00;;;;;-147.17;100.00;50497.56;4988220;28;51329;-64
2022/02/06 06:05:40;;;;;;;;;4.00;2.00;;;;;-147.17;100.00;50458.19;4974688;28;51297;-64
2022/02/06 06:08:06;;;;;;;;;2.25;2.25;;;;;-147.17;100.00;50470.00;4975993;28;51125;-63
2022/02/06 06:10:31;;;;;;;;;2.50;2.00;;;;;-147.17;100.00;50460.16;4991978;28;51169;-64
2022/02/06 06:13:00;;;;;;;;;3.00;2.00;;;;;-147.17;100.00;50485.75;4992051;28;51313;-64
2022/02/06 06:15:26;;;;;;;;;2.75;2.75;;;;;-147.17;100.00;50444.41;4991506;28;52859;-64
2022/02/06 06:17:51;;;;;;;;;3.00;1.25;;;;;-147.17;100.00;50477.88;4993138;28;51143;-65
2022/02/06 06:20:19;;;;;;;;;3.00;2.00;;;;;-147.17;100.00;50438.50;4991042;28;50982;-64
2022/02/06 06:22:45;;;;;;;;;2.75;2.00;;;;;-147.17;100.00;50481.81;4993926;28;51276;-64
2022/02/06 06:25:11;;;;;;;;;1.50;1.50;;;;;-147.17;100.00;50462.13;4988621;28;52720;-64
2022/02/06 06:27:37;;;;;;;;;2.00;1.67;;;;;-147.17;100.00;50446.38;4993754;28;51163;-64
2022/02/06 06:30:04;;;;;;;;;2.00;2.00;;;;;-147.17;100.00;50460.16;4992317;28;50979;-63
2022/02/06 06:32:30;;;;;;;;;1.50;1.50;;;;;-147.17;100.00;50464.09;4993721;28;50900;-63
2022/02/06 06:34:56;;;;;;;;;2.00;2.00;;;;;-147.17;100.00;50452.28;4991098;28;53539;-63
2022/02/06 06:37:22;;;;;;;;;4.00;2.00;;;;;-147.17;100.00;50458.19;4993499;28;50960;-64
2022/02/06 06:39:48;;;;;;;;;2.00;2.00;;;;;-147.17;100.00;50456.22;4991861;28;51064;-64
2022/02/06 06:42:14;;;;;;;;;1.00;1.00;;;;;-147.17;100.00;50468.03;4993739;28;51085;-63
2022/02/06 06:44:41;;;;;;;;;2.00;2.00;;;;;-147.17;100.00;50434.56;4990553;28;51719;-64
2022/02/06 06:47:08;;;;;;;;;2.67;2.67;;;;;-147.17;100.00;50438.50;4988577;28;51200;-63
2022/02/06 06:49:34;;;;;;;;;2.50;2.50;;;;;-147.17;100.00;50434.56;4989957;28;51233;-64
2022/02/06 06:52:01;;;;;;;;;1.75;1.75;;;;;-147.17;100.00;50442.44;4992608;28;51445;-63
2022/02/06 06:54:34;;;;;;;;;1.00;1.00;;;;;-147.17;100.00;50446.38;4992290;28;51767;-63
2022/02/06 06:57:09;;;;;;;;;2.00;2.00;;;;;-147.17;100.00;50438.50;4991905;28;52101;-63
2022/02/06 07:04:42;;;;;;;;;1.00;1.00;;;;;-147.17;100.00;50428.66;4987764;28;51149;-63
2022/02/06 07:07:07;;;;;;;;;3.00;2.00;;;;;-147.17;100.00;50450.31;4991903;28;50996;-64
2022/02/06 07:09:33;;;;;;;;;2.00;2.00;;;;;-147.17;100.00;50466.06;4991933;28;51157;-64
2022/02/06 07:11:58;;;;;;;;;2.00;1.33;;;;;-147.17;100.00;50434.56;4973588;28;51444;-64
2022/02/06 07:14:25;;;;;;;;;2.00;2.00;;;;;-147.17;100.00;50438.50;4990614;28;51321;-64
2022/02/06 07:16:51;;;;;;;;;2.33;2.00;;;;;-147.17;100.00;50452.28;4991577;28;51001;-64
2022/02/06 07:19:16;;;;;;;;;2.00;1.00;;;;;-147.17;100.00;50440.47;4974210;28;51099;-63
2022/02/06 07:21:42;;;;;;;;;2.33;1.67;;;;;-147.17;100.00;50432.59;4984319;28;51058;-63
2022/02/06 07:24:07;;;;;;;;;2.00;2.00;;;;;-147.17;100.00;50426.69;4974780;28;52213;-64
2022/02/06 07:26:33;;;;;;;;;1.67;1.33;;;;;-147.17;100.00;50446.38;4989739;28;50956;-62
2022/02/06 07:29:01;;;;;;;;;2.00;2.00;;;;;-147.17;100.00;50416.84;4993287;28;51359;-63
2022/02/06 07:31:26;;;;;;;;;1.00;1.00;;;;;-147.17;100.00;50430.63;4986526;28;52429;-63
2022/02/06 07:33:53;;;;;;;;;2.00;1.33;;;;;-147.17;100.00;50412.91;4983665;28;52139;-63
2022/02/06 07:36:19;;;;;;;;;2.00;2.00;;;;;-147.17;100.00;50414.88;4997224;28;50881;-61
2022/02/06 07:38:45;;;;;;;;;0.33;0.33;;;;;-147.17;100.00;50399.13;4991227;28;51106;-64
2022/02/06 07:41:10;;;;;;;;;2.00;2.00;;;;;-147.17;100.00;50408.97;4989400;28;51244;-63
2022/02/06 07:43:36;;;;;;;;;1.00;1.00;;;;;-147.17;100.00;50399.13;4991997;28;51365;-62
2022/02/06 07:46:07;;;;;;;;;4.25;3.50;;;;;-147.17;100.00;50422.75;4995994;28;51091;-64
2022/02/06 07:48:33;;;;;;;;;1.00;1.00;;;;;-147.17;100.00;50420.78;4983588;28;51151;-63
2022/02/06 07:50:58;;;;;;;;;1.67;1.00;;;;;-147.17;100.00;50371.56;4987122;28;50913;-63
2022/02/06 07:53:24;;;;;;;;;1.00;1.00;;;;;-147.17;100.00;50416.84;4979393;28;51692;-63
2022/02/06 07:55:49;;;;;;;;;1.67;1.67;;;;;-147.17;100.00;50416.84;4998719;28;51123;-63
2022/02/06 07:58:15;;;;;;;;;2.67;1.67;;;;;-147.17;100.00;50448.34;4991466;28;51006;-63
2022/02/06 08:00:40;;;;;;;;;2.00;2.00;;;;;-147.17;100.00;50424.72;4989465;28;51631;-63
2022/02/06 08:03:06;;;;;;;;;1.00;1.00;;;;;-147.17;100.00;50430.63;4989939;28;51597;-63
2022/02/06 08:05:31;;;;;;;;;2.00;2.00;;;;;-147.17;100.00;50430.63;4991338;28;51222;-64
2022/02/06 08:07:58;;;;;;;;;2.00;2.00;;;;;-147.17;100.00;50430.63;4994274;28;51028;-63
2022/02/06 08:10:25;;;;;;;;;1.25;0.75;;;;;-147.17;100.00;50420.78;4961753;28;51467;-63
2022/02/06 08:12:54;;;;;;;;;3.00;1.67;;;;;-147.17;100.00;50420.78;4988352;28;51369;-62
2022/02/06 08:15:20;;;;;;;;;1.00;0.75;;;;;-147.17;100.00;50434.56;4986218;28;51309;-61
2022/02/06 08:17:46;;;;;;;;;1.00;1.00;;;;;-147.17;100.00;50430.63;4993940;28;50947;-60
2022/02/06 08:20:13;;;;;;;;;2.00;2.00;;;;;-147.17;100.00;50407.00;4991352;28;51178;-63
2022/02/06 08:22:41;;;;;;;;;1.00;1.00;;;;;-147.17;100.00;50407.00;4994763;28;51705;-64
2022/02/06 08:25:08;;;;;;;;;1.33;1.00;;;;;-147.17;100.00;50456.22;4994071;28;51093;-63
2022/02/06 08:27:34;;;;;;;;;0.67;0.67;;;;;-147.17;100.00;50416.84;4981742;28;51261;-64
2022/02/06 08:30:00;;;;;;;;;2.00;1.00;;;;;-147.17;100.00;50418.81;5002216;28;51153;-63
2022/02/06 08:32:26;;;;;;;;;3.00;2.00;;;;;-147.17;100.00;50422.75;4992762;28;52791;-64
2022/02/06 08:34:52;;;;;;;;;1.00;1.00;;;;;-147.17;100.00;50379.44;4994293;28;51177;-62
2022/02/06 08:37:18;;;;;;;;;3.00;1.00;;;;;-147.17;100.00;50430.63;4992841;28;51118;-62
2022/02/06 08:39:44;;;;;;;;;1.00;1.00;;;;;-147.17;100.00;50412.91;4990428;28;51063;-62
2022/02/06 08:42:11;;;;;;;;;1.00;1.00;;;;;-147.17;100.00;50407.00;4981261;28;51929;-65
2022/02/06 08:44:38;;;;;;;;;1.00;1.00;;;;;-147.17;100.00;50432.59;4982512;28;51309;-65
2022/02/06 08:47:06;;;;;;;;;2.67;2.00;;;;;-147.17;100.00;50418.81;4994087;28;51039;-66
2022/02/06 08:49:31;;;;;;;;;2.67;1.67;;;;;-147.17;100.00;50399.13;4963587;28;51159;-64
2022/02/06 08:51:57;;;;;;;;;0.67;0.67;;;;;-147.17;100.00;50389.28;4989966;28;52506;-63
2022/02/06 08:54:25;;;;;;;;;1.67;1.00;;;;;-147.17;100.00;50369.59;4978819;28;51222;-62
2022/02/06 08:56:52;;;;;;;;;2.00;1.33;;;;;-147.17;100.00;50371.56;4988936;28;51197;-64
2022/02/06 08:59:17;;;;;;;;;1.67;1.00;;;;;-147.17;100.00;50385.34;4971228;28;51641;-64
2022/02/06 09:01:43;;;;;;;;;1.67;1.67;;;;;-147.17;100.00;50391.25;4987830;28;51540;-62
2022/02/06 09:04:08;;;;;;;;;3.00;1.67;;;;;-147.17;100.00;50365.66;4982572;28;51641;-63
2022/02/06 09:06:36;;;;;;;;;3.00;2.67;;;;;-147.17;100.00;50344.00;4974958;28;51687;-63
2022/02/06 09:09:02;;;;;;;;;1.33;1.00;;;;;-147.17;100.00;50361.72;4993810;28;50983;-62
2022/02/06 09:11:29;;;;;;;;;2.33;1.67;;;;;-147.17;100.00;50399.13;4985569;28;52988;-62
2022/02/06 09:13:55;;;;;;;;;1.00;1.00;;;;;-147.17;100.00;50353.84;4977764;28;51276;-64
2022/02/06 09:16:23;;;;;;;;;5.00;2.00;;;;;-147.17;100.00;50281.03;4989285;28;51416;-61
2022/02/06 09:18:48;;;;;;;;;2.00;1.00;;;;;-147.17;100.00;50261.34;4991475;28;51179;-62
2022/02/06 09:21:16;;;;;;;;;1.00;1.00;;;;;-147.17;100.00;50304.66;5001816;28;52025;-63
2022/02/06 09:23:41;;;;;;;;;2.00;2.00;;;;;-147.17;100.00;50294.81;4994060;28;50962;-61
2022/02/06 09:26:07;;;;;;;;;2.00;1.00;;;;;-147.17;100.00;50344.00;4976729;28;51189;-63
2022/02/06 09:28:32;;;;;;;;;2.00;1.00;;;;;-147.17;100.00;50324.31;4994006;28;51073;-62
2022/02/06 09:30:57;;;;;;;;;1.67;1.67;;;;;-147.17;100.00;50294.81;4994404;28;51641;-62
2022/02/06 09:35:48;;;;;;;;;1.00;1.00;;;;;-147.17;100.00;50344.00;4993752;28;50870;-67
2022/02/06 09:38:13;;;;;;;;;0.33;0.33;;;;;-147.17;100.00;50347.94;4990730;28;51065;-63
2022/02/06 09:40:44;;;;;;;;;1.00;1.00;;;;;-147.17;100.00;50344.00;4990775;28;51891;-64
2022/02/06 09:43:10;;;;;;;;;1.00;1.00;;;;;-147.17;100.00;50316.44;4989577;28;51439;-65
2022/02/06 09:45:40;;;;;;;;;2.67;2.67;;;;;-147.17;100.00;50328.25;4988561;28;51195;-64
2022/02/06 09:48:10;;;;;;;;;2.67;2.00;;;;;-147.17;100.00;50326.28;4989635;28;52918;-63
2022/02/06 09:50:35;;;;;;;;;1.33;1.33;;;;;-147.17;100.00;50328.25;4989550;28;51141;-62
2022/02/06 09:53:01;;;;;;;;;1.00;1.00;;;;;-147.17;100.00;50336.13;4988980;28;51350;-62
2022/02/06 09:55:26;;;;;;;;;2.67;1.00;;;;;-147.17;100.00;50318.41;4987741;28;52084;-62
2022/02/06 10:00:19;;;;;;;;;1.67;1.67;;;;;-147.17;100.00;50310.56;4987964;28;51546;-63
2022/02/06 10:02:47;;;;;;;;;2.00;1.00;;;;;-147.17;100.00;50324.31;4987575;28;51229;-63
2022/02/06 10:05:15;;;;;;;;;2.00;2.00;;;;;-147.17;100.00;50314.47;4978149;28;51471;-63
2022/02/06 10:07:48;;;;;;;;;1.00;1.00;;;;;-147.17;100.00;50320.38;4988873;28;51585;-62
2022/02/06 10:10:14;;;;;;;;;1.67;1.67;;;;;-147.17;100.00;50308.59;4985502;28;51123;-64
2022/02/06 10:12:42;;;;;;;;;1.00;1.00;;;;;-147.17;100.00;50296.78;4979342;28;50990;-63
2022/02/06 10:15:16;;;;;;;;;1.00;1.00;;;;;-147.17;100.00;50273.16;4988449;28;50999;-62
2022/02/06 10:17:44;;;;;;;;;1.00;1.00;;;;;-147.17;100.00;50316.44;4993179;28;50956;-63
2022/02/06 10:20:17;;;;;;;;;3.00;1.00;;;;;-147.17;100.00;50314.47;4985879;28;51798;-62
2022/02/06 10:22:52;;;;;;;;;2.00;2.00;;;;;-147.17;100.00;50288.91;4984953;28;51041;-63
2022/02/06 10:25:18;;;;;;;;;4.67;4.67;;;;;-147.17;100.00;50324.31;4979475;28;51272;-63
2022/02/06 10:30:42;;;;;;;;;2.00;1.00;;;;;-147.17;100.00;50332.19;4989155;28;51816;-64
2022/02/06 10:33:16;;;;;;;;;1.00;0.33;;;;;-147.17;100.00;50332.19;4965000;28;51174;-63
2022/02/06 10:35:51;;;;;;;;;2.00;1.00;;;;;-147.17;100.00;50340.06;4992909;28;51094;-63
2022/02/06 10:38:19;;;;;;;;;2.00;1.33;;;;;-147.17;100.00;50320.38;4993518;28;51012;-62
2022/02/06 10:41:11;;;;;;;;;1.00;1.00;;;;;-147.17;100.00;50344.00;4972605;28;51903;-62
2022/02/06 10:43:52;;;;;;;;;1.33;1.33;;;;;-147.17;100.00;50304.66;4993199;28;51162;-62
2022/02/06 10:46:17;;;;;;;;;2.00;2.00;;;;;-147.17;100.00;50304.66;4991839;28;51084;-63
2022/02/06 10:48:45;;;;;;;;;2.33;2.33;;;;;-147.17;100.00;50304.66;4973422;28;51423;-63
2022/02/06 10:51:38;;;;;;;;;3.33;3.00;;;;;-147.17;100.00;50312.53;4976490;28;51522;-62
2022/02/06 10:54:06;;;;;;;;;4.00;2.00;;;;;-147.17;100.00;50338.09;4992037;28;51054;-62
2022/02/06 10:56:33;;;;;;;;;3.00;2.00;;;;;-147.17;100.00;50318.41;4992995;28;51055;-62
2022/02/06 10:59:06;;;;;;;;;3.33;1.67;;;;;-147.17;100.00;50314.47;4993173;28;51297;-62
2022/02/06 11:01:31;;;;;;;;;2.00;1.33;;;;;-147.17;100.00;50308.59;4992735;28;50934;-62
2022/02/06 11:04:31;;;;;;;;;2.00;2.00;;;;;-147.17;100.00;50324.31;4992859;28;51118;-61
2022/02/06 11:07:16;;;;;;;;;2.67;2.00;;;;;-147.17;100.00;50338.09;4992433;28;51329;-62
2022/02/06 11:09:42;;;;;;;;;3.00;3.00;;;;;-147.17;100.00;50347.94;4959393;28;51392;-61
2022/02/06 11:12:15;;;;;;;;;2.00;0.67;;;;;-147.17;100.00;50353.84;4992196;28;50996;-62
2022/02/06 11:14:48;;;;;;;;;2.00;2.00;;;;;-147.17;100.00;50344.00;4992453;28;51128;-62
2022/02/06 11:17:25;;;;;;;;;4.00;2.00;;;;;-147.17;100.00;50328.25;4992223;28;50971;-62
2022/02/06 11:20:08;;;;;;;;;4.00;3.00;;;;;-147.17;100.00;50403.06;4992051;28;51358;-61
2022/02/06 11:22:35;;;;;;;;;1.00;1.00;;;;;-147.17;100.00;50379.44;4983208;28;51354;-61
2022/02/06 11:25:04;;;;;;;;;1.33;1.00;;;;;-147.17;100.00;50379.44;4984291;28;51244;-61
2022/02/06 11:27:31;;;;;;;;;2.67;2.00;;;;;-147.17;100.00;50361.72;4984154;28;51122;-61
2022/02/06 11:29:57;;;;;;;;;5.67;3.00;;;;;-147.17;100.00;50361.72;4991377;28;51033;-61
2022/02/06 11:32:26;;;;;;;;;4.00;3.33;;;;;-147.17;100.00;50345.97;4991730;28;52363;-61
2022/02/06 11:34:51;;;;;;;;;3.00;2.00;;;;;-147.17;100.00;50393.22;4991106;28;51037;-61
2022/02/06 11:46:18;;;;;;;;;2.00;2.00;;;;;-147.17;100.00;50381.41;4991884;28;51546;-62
2022/02/06 11:48:46;;;;;;;;;6.67;6.00;;;;;-147.17;100.00;50395.19;4982478;28;51224;-61
2022/02/06 11:51:18;;;;;;;;;3.00;3.00;;;;;-147.17;100.00;50399.13;4980798;28;51210;-62
2022/02/06 11:53:44;;;;;;;;;1.00;1.00;;;;;-147.17;100.00;50391.25;4954284;28;52707;-63
2022/02/06 11:56:33;;;;;;;;;2.33;2.00;;;;;-147.17;100.00;50391.25;4990581;28;51063;-61
2022/02/06 11:59:14;;;;;;;;;2.00;2.00;;;;;-147.17;100.00;50408.97;4983286;28;51294;-63
2022/02/06 12:01:42;;;;;;;;;2.00;2.00;;;;;-147.17;100.00;50430.63;4985986;28;51269;-62
2022/02/06 12:04:19;;;;;;;;;2.00;2.00;;;;;-147.17;100.00;50379.44;4992988;28;51864;-60
2022/02/06 12:06:47;;;;;;;;;1.00;1.00;;;;;-147.17;100.00;50383.38;4973359;28;52698;-59
2022/02/06 12:09:21;;;;;;;;;2.00;1.00;;;;;-147.17;100.00;50332.19;4970266;28;51192;-60
2022/02/06 12:12:04;;;;;;;;;4.00;3.67;;;;;-147.17;100.00;50377.47;4972535;28;51277;-61
2022/02/06 12:14:39;;;;;;;;;2.67;2.00;;;;;-147.17;100.00;50328.25;4976087;28;51038;-61
2022/02/06 12:17:44;;;;;;;;;2.33;2.00;;;;;-147.17;100.00;50324.31;4988897;28;51122;-60
2022/02/06 12:20:07;;;;;;;;;1.67;1.67;;;;;-147.17;100.00;50336.13;4990889;28;51320;-61
2022/02/06 12:22:38;;;;;;;;;2.67;2.00;;;;;-147.17;100.00;50344.00;4964801;28;50929;-60
2022/02/06 12:25:22;;;;;;;;;3.00;2.33;;;;;-147.17;100.00;50349.91;4986998;28;51182;-61
2022/02/06 12:27:50;;;;;;;;;3.00;2.00;;;;;-147.17;100.00;50340.06;4986144;28;51093;-61
2022/02/06 12:30:21;;;;;;;;;5.33;3.00;;;;;-147.17;100.00;50351.88;4983456;28;51116;-60
2022/02/06 12:32:47;;;;;;;;;3.33;2.33;;;;;-147.17;100.00;50347.94;4973897;28;51473;-60
2022/02/06 12:38:01;;;;;;;;;2.00;2.00;;;;;-147.17;100.00;50351.88;4968807;28;51152;-62
2022/02/06 12:40:28;;;;;;;;;2.00;2.00;;;;;-147.17;100.00;50371.56;4993728;28;51093;-63
2022/02/06 12:43:00;;;;;;;;;2.00;1.00;;;;;-147.17;100.00;50387.31;4994515;28;51027;-61
2022/02/06 12:45:27;;;;;;;;;1.33;1.33;;;;;-147.17;100.00;50367.63;4993229;28;51102;-60
2022/02/06 12:47:57;;;;;;;;;1.00;1.00;;;;;-147.17;100.00;50375.50;4996886;28;51056;-61
2022/02/06 12:50:31;;;;;;;;;3.00;3.00;;;;;-147.17;100.00;50405.03;4991887;28;51253;-62
2022/02/06 12:52:58;;;;;;;;;3.67;3.00;;;;;-147.17;100.00;50345.97;4980191;28;51082;-59
2022/02/06 12:55:29;;;;;;;;;1.00;1.00;;;;;-147.17;100.00;50387.31;4967086;28;52848;-58
2022/02/06 12:57:56;;;;;;;;;2.00;2.00;;;;;-147.17;100.00;50387.31;4982851;28;51167;-60
2022/02/06 13:00:47;;;;;;;;;3.00;2.33;;;;;-147.17;100.00;50355.81;4989423;28;51225;-57
2022/02/06 13:03:40;;;;;;;;;3.00;2.67;;;;;-147.17;100.00;50361.72;4992007;28;51315;-62
2022/02/06 13:06:14;;;;;;;;;3.33;3.00;;;;;-147.17;100.00;50371.56;4983428;28;51965;-61
2022/02/06 13:08:41;;;;;;;;;2.00;2.00;;;;;-147.17;100.00;50359.75;4971184;28;51171;-68
2022/02/06 13:11:14;;;;;;;;;1.00;1.00;;;;;-147.17;100.00;50284.97;4991819;28;51089;-74
2022/02/06 13:14:49;;;;;;;;;4.00;3.00;;;;;-147.17;100.00;50363.69;4990949;28;51105;-68
2022/02/06 13:30:09;;;;;;;;;1.00;1.00;;;;;-147.17;100.00;50284.97;4976288;28;51075;-64
2022/02/06 13:35:58;;;;;;;;;3.00;2.00;;;;;-147.17;100.00;50261.34;4986097;28;51562;-69
2022/02/06 13:38:01;;;;;;;;;3.00;3.00;;;;;-147.17;100.00;50249.53;4974081;28;53885;-68
2022/02/06 13:40:31;;;;;;;;;3.00;2.00;;;;;-147.17;100.00;50243.63;4977979;28;50952;-68
2022/02/06 13:43:13;;;;;;;;;2.67;2.67;;;;;-147.17;100.00;50233.78;4994820;28;51109;-67
2022/02/06 13:45:41;;;;;;;;;2.00;1.67;;;;;-147.17;100.00;50239.69;4978825;28;51526;-69
2022/02/06 13:48:09;;;;;;;;;2.00;2.00;;;;;-147.17;100.00;50253.47;4988651;28;52679;-69
2022/02/06 13:50:41;;;;;;;;;2.00;2.00;;;;;-147.17;100.00;50221.97;4976237;28;51119;-67
2022/02/06 13:53:14;;;;;;;;;1.00;1.00;;;;;-147.17;100.00;50225.91;4981000;28;51121;-68
2022/02/06 13:55:50;;;;;;;;;1.00;1.00;;;;;-147.17;100.00;50180.63;4995802;28;51033;-68
2022/02/06 13:58:26;;;;;;;;;2.00;1.67;;;;;-147.17;100.00;50198.34;4993867;28;51223;-60
2022/02/06 14:01:00;;;;;;;;;2.00;2.00;;;;;-147.17;100.00;50178.66;4980864;28;51114;-61
2022/02/06 14:03:56;;;;;;;;;2.00;2.00;;;;;-147.17;100.00;50229.84;4992111;28;51081;-59